createdAt,value
2022-08-29T00:00:18.108Z,74.93
2022-08-29T00:02:47.379Z,79.92
2022-08-29T00:05:16.617Z,80.24
2022-08-29T00:07:44.235Z,79.49
2022-08-29T00:10:12.172Z,77.91
2022-08-29T00:12:39.783Z,78.95
2022-08-29T00:15:10.107Z,76.08
2022-08-29T00:17:37.702Z,75.06
2022-08-29T00:20:06.716Z,74.64
2022-08-29T00:22:35.698Z,75.42
2022-08-29T00:25:04.921Z,76.04
2022-08-29T00:27:33.079Z,78.25
2022-08-29T00:30:00.797Z,76.24
2022-08-29T00:32:34.985Z,76.45
2022-08-29T00:35:02.780Z,76.42
2022-08-29T00:37:30.394Z,74.86
2022-08-29T00:39:59.434Z,74.34
2022-08-29T00:42:27.836Z,74.46
2022-08-29T00:44:55.391Z,74.41
2022-08-29T00:47:30.175Z,75.25
2022-08-29T00:49:58.245Z,74.74
2022-08-29T00:52:32.139Z,74.81
2022-08-29T00:55:03.341Z,76.12
2022-08-29T00:57:33.504Z,75.03
2022-08-29T01:00:01.657Z,75.07
2022-08-29T01:02:29.445Z,74.78
2022-08-29T01:04:57.867Z,75.07
2022-08-29T01:07:25.430Z,75.16
2022-08-29T01:09:54.034Z,74.85
2022-08-29T01:12:23.296Z,74.90
2022-08-29T01:14:53.508Z,74.72
2022-08-29T01:17:24.204Z,74.66
2022-08-29T01:19:57.153Z,74.96
2022-08-29T01:22:44.405Z,75.21
2022-08-29T01:25:17.139Z,75.09
2022-08-29T01:27:48.969Z,75.34
2022-08-29T01:30:16.580Z,75.09
2022-08-29T01:32:44.220Z,75.18
2022-08-29T01:35:12.167Z,75.85
2022-08-29T01:37:43.022Z,78.54
2022-08-29T01:40:11.615Z,80.37
2022-08-29T01:42:40.900Z,77.36
2022-08-29T01:45:10.251Z,78.47
2022-08-29T01:47:39.963Z,76.75
2022-08-29T01:50:12.745Z,76.74
2022-08-29T01:52:41.943Z,76.00
2022-08-29T01:55:09.804Z,75.50
2022-08-29T01:57:38.169Z,75.33
2022-08-29T02:00:10.446Z,75.50
2022-08-29T02:02:40.328Z,75.19
2022-08-29T02:05:09.548Z,75.33
2022-08-29T02:07:37.132Z,75.26
2022-08-29T02:10:06.205Z,75.18
2022-08-29T02:12:34.434Z,75.24
2022-08-29T02:15:02.334Z,74.98
2022-08-29T02:17:31.277Z,75.02
2022-08-29T02:19:59.228Z,76.71
2022-08-29T02:22:26.812Z,76.47
2022-08-29T02:24:54.411Z,76.28
2022-08-29T02:27:22.040Z,75.45
2022-08-29T02:29:49.653Z,75.30
2022-08-29T02:32:17.432Z,75.16
2022-08-29T02:34:47.631Z,75.36
2022-08-29T02:37:16.892Z,75.19
2022-08-29T02:39:44.610Z,75.20
2022-08-29T02:42:12.153Z,75.22
2022-08-29T02:44:39.789Z,75.43
2022-08-29T02:47:09.092Z,75.58
2022-08-29T02:49:36.810Z,75.52
2022-08-29T02:52:08.482Z,75.48
2022-08-29T02:54:36.519Z,75.53
2022-08-29T02:57:04.323Z,75.63
2022-08-29T02:59:31.898Z,75.83
2022-08-29T03:01:59.563Z,75.86
2022-08-29T03:04:27.167Z,75.83
2022-08-29T03:06:55.801Z,75.72
2022-08-29T03:09:24.680Z,75.66
2022-08-29T03:11:56.076Z,75.70
2022-08-29T03:14:24.030Z,75.76
2022-08-29T03:16:51.582Z,77.47
2022-08-29T03:19:19.346Z,80.48
2022-08-29T03:21:47.696Z,81.56
2022-08-29T03:24:15.685Z,81.42
2022-08-29T03:26:45.014Z,77.39
2022-08-29T03:29:22.254Z,76.75
2022-08-29T03:31:49.836Z,77.41
2022-08-29T03:34:17.379Z,78.56
2022-08-29T03:36:44.929Z,76.94
2022-08-29T03:39:12.459Z,75.91
2022-08-29T03:41:40.563Z,75.32
2022-08-29T03:44:09.869Z,75.12
2022-08-29T03:46:39.214Z,74.85
2022-08-29T03:49:08.015Z,74.83
2022-08-29T03:51:36.463Z,74.80
2022-08-29T03:54:04.307Z,74.95
2022-08-29T03:56:32.150Z,74.91
2022-08-29T03:59:00.217Z,75.36
2022-08-29T04:01:29.945Z,75.57
2022-08-29T04:03:58.593Z,75.50
2022-08-29T04:06:28.257Z,75.36
2022-08-29T04:08:56.640Z,76.02
2022-08-29T04:11:25.762Z,74.51
2022-08-29T04:13:54.217Z,74.51
2022-08-29T04:16:24.645Z,74.94
2022-08-29T04:18:56.783Z,74.58
2022-08-29T04:21:25.818Z,75.93
2022-08-29T04:23:55.088Z,76.21
2022-08-29T04:26:38.483Z,75.43
2022-08-29T04:29:06.700Z,78.59
2022-08-29T04:31:35.297Z,76.17
2022-08-29T04:34:04.404Z,75.03
2022-08-29T04:36:32.050Z,74.82
2022-08-29T04:38:59.611Z,74.97
2022-08-29T04:41:27.190Z,75.10
2022-08-29T04:43:54.735Z,74.87
2022-08-29T04:46:24.527Z,74.74
2022-08-29T04:48:53.047Z,76.20
2022-08-29T04:51:22.769Z,75.37
2022-08-29T04:53:52.357Z,75.59
2022-08-29T04:56:21.231Z,75.01
2022-08-29T04:58:50.491Z,74.96
2022-08-29T05:01:20.982Z,74.85
2022-08-29T05:03:49.526Z,74.98
2022-08-29T05:06:22.457Z,74.91
2022-08-29T05:08:59.353Z,75.09
2022-08-29T05:11:30.308Z,76.01
2022-08-29T05:13:58.992Z,75.16
2022-08-29T05:16:30.199Z,75.02
2022-08-29T05:18:59.933Z,75.06
2022-08-29T05:21:34.917Z,75.48
2022-08-29T05:24:07.804Z,75.65
2022-08-29T05:26:37.983Z,75.46
2022-08-29T05:29:08.906Z,75.67
2022-08-29T05:31:38.098Z,75.64
2022-08-29T05:34:27.878Z,75.72
2022-08-29T05:36:54.886Z,75.75
2022-08-29T05:39:24.544Z,76.08
2022-08-29T05:41:56.238Z,77.14
2022-08-29T05:44:24.638Z,79.27
2022-08-29T05:46:52.786Z,81.47
2022-08-29T05:49:21.228Z,83.54
2022-08-29T05:51:49.618Z,84.26
2022-08-29T05:54:18.046Z,85.93
2022-08-29T05:56:47.720Z,86.19
2022-08-29T05:59:17.656Z,86.85
2022-08-29T06:01:47.054Z,85.86
2022-08-29T06:04:15.401Z,81.82
2022-08-29T06:06:43.641Z,79.12
2022-08-29T06:09:13.951Z,77.58
2022-08-29T06:11:42.475Z,77.68
2022-08-29T06:14:12.285Z,77.20
2022-08-29T06:16:40.981Z,77.20
2022-08-29T06:19:10.094Z,78.26
2022-08-29T06:21:38.565Z,77.19
2022-08-29T06:24:07.844Z,77.36
2022-08-29T06:26:37.129Z,79.35
2022-08-29T06:29:07.612Z,76.60
2022-08-29T06:31:37.862Z,75.62
2022-08-29T06:34:08.152Z,76.01
2022-08-29T06:36:37.333Z,77.52
2022-08-29T06:39:08.416Z,79.84
2022-08-29T06:41:38.259Z,81.04
2022-08-29T06:44:06.811Z,81.44
2022-08-29T06:46:38.764Z,80.21
2022-08-29T06:49:09.406Z,77.74
2022-08-29T06:51:39.176Z,78.90
2022-08-29T06:54:10.322Z,77.46
2022-08-29T06:56:42.378Z,79.27
2022-08-29T06:59:11.671Z,77.67
2022-08-29T07:01:42.986Z,76.87
2022-08-29T07:04:14.673Z,76.06
2022-08-29T07:06:45.375Z,74.73
2022-08-29T07:09:14.889Z,75.36
2022-08-29T07:11:44.351Z,78.28
2022-08-29T07:14:14.316Z,75.29
2022-08-29T07:16:44.857Z,75.64
2022-08-29T07:19:13.618Z,77.98
2022-08-29T07:21:43.169Z,78.35
2022-08-29T07:24:12.521Z,74.71
2022-08-29T07:26:44.267Z,73.95
2022-08-29T07:29:15.837Z,72.50
2022-08-29T07:31:46.702Z,71.46
2022-08-29T07:34:15.827Z,70.24
2022-08-29T07:36:44.993Z,69.91
2022-08-29T07:39:17.662Z,68.82
2022-08-29T07:41:47.419Z,68.05
2022-08-29T07:44:21.065Z,67.47
2022-08-29T07:46:56.127Z,67.37
2022-08-29T07:49:40.309Z,67.15
2022-08-29T07:52:11.103Z,66.44
2022-08-29T07:54:55.998Z,65.85
2022-08-29T07:57:28.210Z,64.91
2022-08-29T07:59:59.843Z,63.97
2022-08-29T08:02:33.080Z,62.97
2022-08-29T08:05:05.964Z,62.33
2022-08-29T08:07:40.118Z,60.44
2022-08-29T08:10:15.000Z,58.74
2022-08-29T08:12:47.940Z,58.09
2022-08-29T08:15:24.368Z,55.96
2022-08-29T08:18:15.016Z,56.15
2022-08-29T09:10:15.950Z,42.89
2022-08-29T09:12:58.490Z,42.45
2022-08-29T09:15:34.195Z,42.01
2022-08-29T09:18:05.563Z,41.83
2022-08-29T09:20:35.518Z,43.17
2022-08-29T09:23:12.142Z,42.03
2022-08-29T09:25:41.153Z,43.36
2022-08-29T09:28:10.123Z,42.98
2022-08-29T09:30:41.355Z,43.67
2022-08-29T09:33:12.260Z,43.66
2022-08-29T09:35:43.474Z,44.76
2022-08-29T09:38:21.283Z,44.14
2022-08-29T09:40:57.191Z,45.03
2022-08-29T09:43:28.454Z,44.85
2022-08-29T09:46:14.706Z,43.88
2022-08-29T09:48:44.601Z,44.96
2022-08-29T09:51:16.625Z,43.57
2022-08-29T09:53:44.393Z,45.23
2022-08-29T09:56:21.965Z,45.65
2022-08-29T09:59:01.378Z,45.74
2022-08-29T10:01:30.652Z,45.84
2022-08-29T10:04:01.009Z,44.88
2022-08-29T10:06:32.211Z,44.44
2022-08-29T10:09:03.850Z,43.67
2022-08-29T10:11:39.838Z,43.89
2022-08-29T10:14:12.624Z,43.56
2022-08-29T10:16:46.900Z,42.74
2022-08-29T10:19:19.201Z,43.13
2022-08-29T10:21:58.053Z,43.48
2022-08-29T10:24:42.898Z,43.44
2022-08-29T10:27:23.776Z,41.42
2022-08-29T10:30:03.222Z,41.49
2022-08-29T10:32:44.468Z,41.48
2022-08-29T10:35:16.777Z,41.40
2022-08-29T10:37:53.482Z,41.01
2022-08-29T10:40:27.697Z,38.92
2022-08-29T10:43:13.225Z,40.00
2022-08-29T10:45:54.467Z,39.03
2022-08-29T10:48:30.835Z,44.13
2022-08-29T10:51:11.497Z,40.23
2022-08-29T10:53:42.339Z,39.99
2022-08-29T10:56:18.698Z,37.62
2022-08-29T10:58:59.323Z,38.00
2022-08-29T11:01:31.858Z,37.70
2022-08-29T11:04:17.239Z,38.36
2022-08-29T11:06:50.604Z,38.23
2022-08-29T11:09:22.066Z,38.50
2022-08-29T11:12:03.424Z,38.28
2022-08-29T11:14:40.032Z,37.76
2022-08-29T11:17:11.374Z,40.38
2022-08-29T11:19:50.335Z,37.46
2022-08-29T11:22:21.249Z,37.29
2022-08-29T11:24:57.709Z,36.25
2022-08-29T11:27:34.944Z,36.69
2022-08-29T11:30:08.822Z,36.22
2022-08-29T11:32:46.233Z,36.87
2022-08-29T11:35:22.167Z,36.17
2022-08-29T11:38:37.512Z,35.85
2022-08-29T11:41:29.479Z,34.30
2022-08-29T11:44:08.615Z,34.82
2022-08-29T11:46:42.230Z,33.99
2022-08-29T11:49:25.185Z,35.36
2022-08-29T11:51:56.274Z,35.21
2022-08-29T11:54:51.420Z,35.34
2022-08-29T11:58:03.845Z,35.97
2022-08-29T12:00:45.594Z,35.01
2022-08-29T12:03:53.788Z,36.89
2022-08-29T12:06:53.525Z,35.58
2022-08-29T12:09:45.476Z,36.61
2022-08-29T12:12:35.694Z,36.49
2022-08-29T12:15:23.547Z,36.16
2022-08-29T12:18:02.134Z,36.37
2022-08-29T12:20:41.166Z,36.35
2022-08-29T12:23:20.182Z,36.26
2022-08-29T12:26:04.125Z,36.24
2022-08-29T12:28:45.397Z,35.99
2022-08-29T12:31:21.859Z,35.94
2022-08-29T12:34:11.282Z,37.38
2022-08-29T12:36:53.073Z,37.48
2022-08-29T12:39:33.703Z,36.97
2022-08-29T12:42:20.482Z,37.19
2022-08-29T12:44:49.767Z,37.72
2022-08-29T12:47:27.389Z,38.62
2022-08-29T12:49:58.339Z,38.25
2022-08-29T12:52:28.370Z,36.77
2022-08-29T12:54:58.776Z,37.67
2022-08-29T12:57:31.591Z,38.15
2022-08-29T13:00:00.318Z,38.83
2022-08-29T13:02:31.415Z,37.14
2022-08-29T13:05:00.090Z,38.07
2022-08-29T13:07:30.162Z,38.60
2022-08-29T13:10:01.404Z,38.25
2022-08-29T13:12:31.115Z,37.04
2022-08-29T13:15:02.177Z,38.38
2022-08-29T13:17:34.838Z,38.78
2022-08-29T13:20:41.053Z,37.48
2022-08-29T13:23:19.199Z,36.31
2022-08-29T13:25:52.545Z,36.61
2022-08-29T13:28:30.207Z,36.92
2022-08-29T13:31:24.919Z,37.71
2022-08-29T13:34:17.796Z,36.80
2022-08-29T13:37:07.722Z,37.79
2022-08-29T13:39:44.613Z,36.65
2022-08-29T13:42:23.665Z,36.96
2022-08-29T13:45:10.409Z,39.40
2022-08-29T13:47:48.570Z,37.57
2022-08-29T13:50:16.147Z,36.74
2022-08-29T13:52:43.814Z,37.95
2022-08-29T13:55:11.385Z,37.28
2022-08-29T13:57:42.318Z,36.46
2022-08-29T14:00:13.191Z,37.20
2022-08-29T14:02:45.215Z,37.56
2022-08-29T14:05:14.347Z,37.09
2022-08-29T14:07:44.175Z,36.55
2022-08-29T14:10:13.874Z,37.02
2022-08-29T14:12:42.927Z,37.05
2022-08-29T14:15:12.307Z,38.10
2022-08-29T14:17:41.495Z,38.17
2022-08-29T14:20:10.550Z,37.10
2022-08-29T14:22:38.511Z,37.85
2022-08-29T14:25:07.905Z,38.35
2022-08-29T14:27:35.632Z,37.74
2022-08-29T14:30:06.074Z,37.84
2022-08-29T14:32:33.696Z,37.97
2022-08-29T14:35:01.796Z,38.63
2022-08-29T14:37:29.371Z,37.90
2022-08-29T14:39:57.154Z,38.53
2022-08-29T14:42:25.979Z,38.94
2022-08-29T14:44:53.555Z,38.33
2022-08-29T14:47:22.502Z,38.56
2022-08-29T14:49:50.131Z,38.50
2022-08-29T14:52:17.718Z,38.72
2022-08-29T14:54:45.279Z,38.58
2022-08-29T14:57:12.921Z,39.04
2022-08-29T14:59:40.728Z,38.82
2022-08-29T15:02:10.023Z,39.19
2022-08-29T15:04:39.140Z,41.33
2022-08-29T15:07:07.576Z,39.37
2022-08-29T15:09:45.430Z,39.70
2022-08-29T15:12:39.635Z,38.81
2022-08-29T15:18:02.363Z,39.96
2022-08-29T15:23:58.361Z,39.60
2022-08-29T15:26:37.238Z,40.20
2022-08-29T15:32:16.962Z,43.05
2022-08-29T15:34:51.473Z,41.55
2022-08-29T15:37:29.795Z,40.52
2022-08-29T15:42:58.479Z,42.55
2022-08-29T15:45:27.423Z,39.92
2022-08-29T15:48:00.202Z,40.04
2022-08-29T15:50:29.438Z,40.40
2022-08-29T15:53:00.225Z,40.53
2022-08-29T15:55:28.096Z,40.83
2022-08-29T15:57:55.698Z,42.04
2022-08-29T16:00:29.558Z,43.75
2022-08-29T16:02:59.627Z,41.12
2022-08-29T16:05:27.524Z,40.89
2022-08-29T16:07:55.104Z,40.77
2022-08-29T16:10:24.176Z,41.91
2022-08-29T16:12:51.733Z,41.73
2022-08-29T16:15:19.358Z,43.19
2022-08-29T16:17:46.978Z,42.26
2022-08-29T16:20:15.155Z,41.19
2022-08-29T16:22:44.155Z,45.09
2022-08-29T16:25:13.644Z,43.07
2022-08-29T16:27:43.070Z,42.73
2022-08-29T16:30:11.850Z,45.57
2022-08-29T16:32:39.790Z,43.46
2022-08-29T16:35:08.594Z,43.23
2022-08-29T16:37:37.449Z,43.71
2022-08-29T16:40:07.196Z,44.61
2022-08-29T16:42:35.342Z,44.63
2022-08-29T16:45:06.165Z,44.47
2022-08-29T16:47:33.777Z,44.71
2022-08-29T16:50:01.496Z,43.73
2022-08-29T16:52:31.312Z,44.02
2022-08-29T16:54:59.075Z,44.05
2022-08-29T16:57:26.653Z,44.43
2022-08-29T16:59:54.242Z,44.20
2022-08-29T17:02:23.434Z,44.23
2022-08-29T17:04:51.315Z,44.49
2022-08-29T17:07:19.844Z,44.80
2022-08-29T17:09:46.347Z,44.99
2022-08-29T17:12:12.855Z,45.48
2022-08-29T17:14:39.421Z,45.33
2022-08-29T17:17:07.089Z,45.27
2022-08-29T17:19:36.380Z,45.86
2022-08-29T17:22:04.040Z,45.63
2022-08-29T17:24:31.684Z,45.50
2022-08-29T17:26:59.282Z,45.06
2022-08-29T17:29:26.884Z,44.46
2022-08-29T17:31:54.458Z,44.57
2022-08-29T17:34:23.855Z,44.72
2022-08-29T17:36:52.862Z,44.30
2022-08-29T17:39:20.945Z,44.66
2022-08-29T17:41:50.523Z,44.36
2022-08-29T17:44:18.489Z,44.36
2022-08-29T17:46:46.299Z,44.51
2022-08-29T17:49:13.890Z,44.80
2022-08-29T17:51:43.081Z,44.81
2022-08-29T17:54:14.662Z,44.87
2022-08-29T17:56:44.978Z,45.63
2022-08-29T17:59:12.778Z,45.77
2022-08-29T18:01:40.762Z,46.64
2022-08-29T18:04:08.676Z,47.43
2022-08-29T18:06:36.302Z,47.97
2022-08-29T18:09:04.186Z,48.57
2022-08-29T18:11:33.572Z,48.46
2022-08-29T18:14:01.150Z,48.65
2022-08-29T18:16:28.838Z,49.56
2022-08-29T18:18:56.594Z,49.41
2022-08-29T18:21:24.197Z,49.95
2022-08-29T18:23:51.859Z,49.82
2022-08-29T18:26:19.525Z,49.82
2022-08-29T18:28:48.702Z,49.90
2022-08-29T18:31:18.245Z,49.66
2022-08-29T18:34:00.209Z,50.37
2022-08-29T18:36:28.644Z,50.38
2022-08-29T18:38:56.375Z,50.62
2022-08-29T18:41:23.954Z,50.48
2022-08-29T18:43:53.388Z,50.68
2022-08-29T18:46:21.120Z,50.70
2022-08-29T18:48:49.071Z,51.54
2022-08-29T18:51:16.997Z,51.22
2022-08-29T18:53:45.139Z,51.88
2022-08-29T18:56:13.247Z,52.04
2022-08-29T18:58:44.216Z,51.97
2022-08-29T19:01:16.971Z,52.68
2022-08-29T19:03:56.335Z,52.81
2022-08-29T19:06:25.891Z,52.79
2022-08-29T19:08:54.537Z,52.41
2022-08-29T19:11:22.145Z,53.21
2022-08-29T19:13:52.394Z,53.76
2022-08-29T19:16:22.934Z,54.24
2022-08-29T19:18:51.107Z,54.70
2022-08-29T19:21:18.422Z,54.60
2022-08-29T19:23:52.057Z,56.40
2022-08-29T19:26:23.536Z,62.52
2022-08-29T19:28:54.119Z,57.26
2022-08-29T19:31:27.057Z,57.74
2022-08-29T19:33:54.784Z,60.54
2022-08-29T19:36:23.441Z,57.45
2022-08-29T19:38:51.241Z,56.67
2022-08-29T19:41:19.953Z,57.16
2022-08-29T19:43:47.799Z,57.09
2022-08-29T19:46:18.252Z,57.22
2022-08-29T19:51:32.808Z,57.63
2022-08-29T19:54:03.172Z,57.26
2022-08-29T19:56:33.270Z,57.45
2022-08-29T19:59:01.212Z,58.00
2022-08-29T20:01:29.193Z,58.04
2022-08-29T20:03:58.201Z,58.06
2022-08-29T20:06:25.867Z,61.84
2022-08-29T20:08:54.003Z,59.30
2022-08-29T20:11:24.982Z,59.07
2022-08-29T20:13:56.607Z,58.99
2022-08-29T20:16:27.617Z,59.32
2022-08-29T20:18:55.429Z,58.93
2022-08-29T20:21:25.041Z,59.46
2022-08-29T20:23:57.725Z,62.63
2022-08-29T20:26:27.872Z,60.04
2022-08-29T20:28:55.953Z,60.91
2022-08-29T20:31:23.602Z,64.65
2022-08-29T20:33:51.599Z,60.84
2022-08-29T20:36:39.589Z,65.93
2022-08-29T20:39:10.707Z,60.76
2022-08-29T20:41:38.404Z,60.31
2022-08-29T20:44:09.800Z,60.04
2022-08-29T20:46:40.422Z,60.01
2022-08-29T20:49:08.252Z,60.19
2022-08-29T20:51:36.591Z,60.00
2022-08-29T20:54:04.848Z,60.21
2022-08-29T20:56:33.834Z,59.90
2022-08-29T20:59:01.578Z,59.88
2022-08-29T21:01:29.168Z,62.46
2022-08-29T21:04:14.398Z,59.32
2022-08-29T21:06:48.861Z,58.82
2022-08-29T21:09:16.531Z,58.92
2022-08-29T21:11:45.575Z,59.26
2022-08-29T21:14:13.186Z,59.12
2022-08-29T21:16:40.965Z,59.10
2022-08-29T21:19:09.904Z,59.21
2022-08-29T21:21:39.182Z,59.16
2022-08-29T21:24:07.708Z,59.19
2022-08-29T21:26:35.830Z,59.04
2022-08-29T21:29:05.997Z,58.98
2022-08-29T21:31:34.401Z,58.32
2022-08-29T21:34:06.316Z,58.58
2022-08-29T21:36:35.928Z,58.95
2022-08-29T21:39:05.387Z,59.87
2022-08-29T21:41:34.185Z,62.08
2022-08-29T21:44:01.799Z,62.20
2022-08-29T21:46:32.809Z,70.76
2022-08-29T21:49:02.615Z,70.33
2022-08-29T21:51:32.241Z,67.68
2022-08-29T21:54:00.335Z,63.48
2022-08-29T21:56:31.208Z,61.58
2022-08-29T21:59:00.106Z,60.71
2022-08-29T22:01:33.936Z,60.40
2022-08-29T22:04:04.029Z,59.54
2022-08-29T22:06:35.202Z,59.45
2022-08-29T22:09:03.792Z,59.94
2022-08-29T22:11:37.634Z,59.91
2022-08-29T22:14:07.209Z,63.73
2022-08-29T22:16:37.359Z,70.61
2022-08-29T22:19:09.038Z,67.10
2022-08-29T22:21:39.599Z,71.01
2022-08-29T22:24:10.395Z,65.08
2022-08-29T22:26:39.940Z,67.41
2022-08-29T22:29:11.952Z,74.00
2022-08-29T22:31:42.922Z,72.94
2022-08-29T22:34:12.169Z,67.03
2022-08-29T22:36:40.979Z,64.28
2022-08-29T22:39:09.778Z,67.81
2022-08-29T22:41:38.432Z,65.25
2022-08-29T22:44:52.628Z,62.91
2022-08-29T22:46:59.166Z,68.91
2022-08-29T22:49:33.471Z,64.81
2022-08-29T22:52:02.142Z,64.63
2022-08-29T22:54:36.072Z,62.31
2022-08-29T22:57:05.391Z,61.79
2022-08-29T22:59:35.066Z,61.67
2022-08-29T23:02:05.764Z,61.11
2022-08-29T23:04:34.604Z,60.77
2022-08-29T23:07:03.213Z,60.34
2022-08-29T23:09:33.562Z,62.34
2022-08-29T23:12:04.933Z,60.98
2022-08-29T23:14:33.281Z,60.72
2022-08-29T23:17:01.694Z,60.50
2022-08-29T23:19:32.100Z,65.12
2022-08-29T23:22:02.231Z,64.07
2022-08-29T23:24:30.692Z,72.87
2022-08-29T23:26:59.536Z,65.67
2022-08-29T23:29:29.846Z,70.88
2022-08-29T23:31:58.373Z,74.54
2022-08-29T23:34:26.898Z,67.05
2022-08-29T23:36:56.936Z,64.93
2022-08-29T23:39:25.240Z,64.29
2022-08-29T23:41:53.735Z,65.02
2022-08-29T23:44:22.163Z,65.55
2022-08-29T23:46:50.717Z,64.87
2022-08-29T23:49:19.215Z,70.91
2022-08-29T23:51:47.604Z,72.28
2022-08-29T23:54:18.432Z,67.35
2022-08-29T23:56:46.894Z,65.82
2022-08-29T23:59:35.406Z,65.53
